Time;durP1;ratioP1;P1;durP2;ratioP2;P2;SDS_P1;SDS_P2;PMS_P1;PMS_P2;Temp;Humidity;BMP_temperature;BMP_pressure;BME280_temperature;BME280_humidity;BME280_pressure;Samples;Min_cycle;Max_cycle;Signal;HPM_P1;HPM_P2
2022/07/21 00:00:37;;;;;;;15.40;12.13;;;20.50;99.90;;;;;;5005884;28;20507;-78
2022/07/21 00:03:03;;;;;;;18.92;13.50;;;20.50;99.90;;;;;;5008546;28;20128;-78
2022/07/21 00:05:29;;;;;;;15.18;12.70;;;20.50;99.90;;;;;;5009109;28;20085;-78
2022/07/21 00:07:54;;;;;;;12.70;11.40;;;20.50;99.90;;;;;;4991786;28;21199;-78
2022/07/21 00:10:25;;;;;;;12.30;10.93;;;20.50;99.90;;;;;;4998638;28;20056;-77
2022/07/21 00:12:51;;;;;;;20.33;13.65;;;20.40;99.90;;;;;;5020367;28;20128;-78
2022/07/21 00:15:22;;;;;;;17.40;13.57;;;20.40;99.90;;;;;;5002323;28;20050;-77
2022/07/21 00:17:48;;;;;;;15.45;12.75;;;20.30;99.90;;;;;;5024437;28;20547;-77
2022/07/21 00:20:17;;;;;;;25.17;16.45;;;20.30;99.90;;;;;;4994979;28;20188;-76
2022/07/21 00:22:44;;;;;;;16.50;13.57;;;20.30;99.90;;;;;;5002260;28;20049;-76
2022/07/21 00:25:11;;;;;;;16.63;13.93;;;20.30;99.90;;;;;;5015375;28;20045;-77
2022/07/21 00:27:40;;;;;;;16.95;14.27;;;20.30;99.90;;;;;;5014761;28;20057;-77
2022/07/21 00:30:07;;;;;;;17.63;15.00;;;20.30;99.90;;;;;;5012105;28;20045;-78
2022/07/21 00:32:33;;;;;;;15.80;14.18;;;20.20;99.90;;;;;;5015944;28;20065;-77
2022/07/21 00:34:59;;;;;;;19.40;16.48;;;20.20;99.90;;;;;;4990342;28;20049;-77
2022/07/21 00:37:27;;;;;;;15.45;13.38;;;20.20;99.90;;;;;;5010085;28;20046;-75
2022/07/21 00:39:55;;;;;;;17.00;14.07;;;20.10;99.90;;;;;;4993308;28;20712;-75
2022/07/21 00:42:27;;;;;;;20.52;14.48;;;20.10;99.90;;;;;;4994236;28;20174;-77
2022/07/21 00:45:04;;;;;;;18.75;16.92;;;20.10;99.90;;;;;;4995329;28;20041;-75
2022/07/21 00:47:31;;;;;;;16.25;14.55;;;20.10;99.90;;;;;;5017350;28;20496;-75
2022/07/21 00:50:03;;;;;;;20.25;17.33;;;20.00;99.90;;;;;;5010548;28;20053;-75
2022/07/21 00:52:29;;;;;;;17.08;15.25;;;20.00;99.90;;;;;;5007719;28;20053;-74
2022/07/21 00:54:55;;;;;;;16.83;14.07;;;20.00;99.90;;;;;;5014814;28;20079;-74
2022/07/21 00:57:21;;;;;;;17.67;14.65;;;20.00;99.90;;;;;;4977650;28;20057;-74
2022/07/21 00:59:47;;;;;;;19.60;16.35;;;19.90;99.90;;;;;;4980165;28;20088;-77
2022/07/21 01:02:13;;;;;;;22.98;18.25;;;19.90;99.90;;;;;;4999429;28;20527;-76
2022/07/21 01:04:39;;;;;;;19.52;17.40;;;19.90;99.90;;;;;;5000556;28;20072;-76
2022/07/21 01:07:05;;;;;;;17.77;15.95;;;19.80;99.90;;;;;;5014555;28;20072;-76
2022/07/21 01:09:33;;;;;;;18.35;16.38;;;19.80;99.90;;;;;;5012623;28;20037;-76
2022/07/21 01:12:00;;;;;;;20.65;17.30;;;19.80;99.90;;;;;;4987063;28;20586;-76
2022/07/21 01:14:27;;;;;;;22.05;19.75;;;19.80;99.90;;;;;;5011976;28;20527;-76
2022/07/21 01:16:53;;;;;;;19.48;17.50;;;19.80;99.90;;;;;;4992503;28;20053;-76
2022/07/21 01:19:25;;;;;;;21.73;19.48;;;19.80;99.90;;;;;;4996478;28;20049;-73
2022/07/21 01:21:52;;;;;;;25.17;20.77;;;19.80;99.90;;;;;;5011528;28;20046;-73
2022/07/21 01:24:20;;;;;;;18.75;16.75;;;19.80;99.90;;;;;;5001678;28;20048;-73
2022/07/21 01:26:48;;;;;;;23.05;19.33;;;19.70;99.90;;;;;;4985507;28;20345;-73
2022/07/21 01:29:15;;;;;;;32.40;22.63;;;19.70;99.90;;;;;;5015438;28;20059;-73
2022/07/21 01:31:43;;;;;;;20.38;18.25;;;19.70;99.90;;;;;;5015899;28;20558;-73
2022/07/21 01:34:18;;;;;;;19.33;17.33;;;19.70;99.90;;;;;;5018556;28;20132;-77
2022/07/21 01:36:45;;;;;;;32.72;23.35;;;19.70;99.90;;;;;;4984699;28;20037;-77
2022/07/21 01:41:55;;;;;;;16.65;14.85;;;19.80;99.90;;;;;;5005418;28;20512;-76
2022/07/21 01:44:21;;;;;;;25.98;21.42;;;19.80;99.90;;;;;;4995665;28;20057;-77
2022/07/21 01:46:50;;;;;;;20.17;18.02;;;19.80;99.90;;;;;;5006111;28;20049;-76
2022/07/21 01:49:18;;;;;;;21.38;19.05;;;19.80;99.90;;;;;;5009175;28;20080;-76
2022/07/21 01:51:43;;;;;;;21.88;19.67;;;19.80;99.90;;;;;;4993996;28;20423;-73
2022/07/21 01:54:10;;;;;;;18.83;16.92;;;19.80;99.90;;;;;;4983701;28;20044;-76
2022/07/21 01:56:38;;;;;;;18.65;16.80;;;19.80;99.90;;;;;;4999613;28;20132;-73
2022/07/21 01:59:05;;;;;;;23.50;20.75;;;19.80;99.90;;;;;;4992782;28;20041;-73
2022/07/21 02:01:32;;;;;;;59.60;27.15;;;19.70;99.90;;;;;;4998887;28;20127;-74
2022/07/21 02:04:00;;;;;;;19.38;16.38;;;19.70;99.90;;;;;;5018636;28;20496;-76
2022/07/21 02:06:27;;;;;;;27.27;23.20;;;19.60;99.90;;;;;;4989956;28;20103;-76
2022/07/21 02:08:56;;;;;;;29.90;21.02;;;19.60;99.90;;;;;;4990535;28;20056;-76
2022/07/21 02:11:25;;;;;;;21.75;19.35;;;19.60;99.90;;;;;;5016415;28;20046;-78
2022/07/21 02:13:51;;;;;;;25.33;21.70;;;19.60;99.90;;;;;;4994877;28;20500;-77
2022/07/21 02:16:19;;;;;;;28.05;22.63;;;19.50;99.90;;;;;;5000224;28;20045;-77
2022/07/21 02:18:45;;;;;;;20.23;18.13;;;19.50;99.90;;;;;;5014822;28;20515;-76
2022/07/21 02:21:11;;;;;;;53.10;30.00;;;19.50;99.90;;;;;;5014771;28;20053;-76
2022/07/21 02:23:37;;;;;;;21.40;19.13;;;19.50;99.90;;;;;;5013978;28;20045;-75
2022/07/21 02:26:03;;;;;;;36.30;24.08;;;19.50;99.90;;;;;;5000941;28;20049;-76
2022/07/21 02:28:29;;;;;;;74.18;32.88;;;19.60;99.90;;;;;;5014621;28;20614;-76
2022/07/21 02:30:55;;;;;;;39.15;25.20;;;19.50;99.90;;;;;;4991372;28;20612;-76
2022/07/21 02:33:26;;;;;;;22.40;20.10;;;19.50;99.90;;;;;;4981893;28;20107;-76
2022/07/21 02:35:55;;;;;;;24.48;20.50;;;19.40;99.90;;;;;;5016456;28;20412;-76
2022/07/21 02:38:24;;;;;;;22.10;19.90;;;19.40;99.90;;;;;;4997379;28;20413;-75
2022/07/21 02:40:50;;;;;;;44.55;25.33;;;19.40;99.90;;;;;;4994567;28;20049;-75
2022/07/21 02:43:19;;;;;;;24.23;21.77;;;19.40;99.90;;;;;;5005403;28;20444;-73
2022/07/21 02:45:45;;;;;;;19.30;17.37;;;19.40;99.90;;;;;;5004334;28;20233;-73
2022/07/21 02:48:13;;;;;;;21.77;19.63;;;19.40;99.90;;;;;;5002549;28;20120;-76
2022/07/21 02:50:42;;;;;;;21.58;19.13;;;19.40;99.90;;;;;;4976605;28;20065;-75
2022/07/21 02:53:11;;;;;;;21.52;19.33;;;19.40;99.90;;;;;;5004750;28;20052;-75
2022/07/21 02:55:38;;;;;;;23.15;20.73;;;19.40;99.90;;;;;;5003689;28;20046;-75
2022/07/21 02:58:06;;;;;;;20.42;18.45;;;19.40;99.90;;;;;;5004697;28;20096;-75
2022/07/21 03:00:34;;;;;;;22.02;19.80;;;19.30;99.90;;;;;;5005998;28;20046;-76
2022/07/21 03:03:00;;;;;;;22.23;19.90;;;19.40;99.90;;;;;;4991894;28;20050;-75
2022/07/21 03:05:30;;;;;;;24.60;22.15;;;19.30;99.90;;;;;;5005076;28;20045;-76
2022/07/21 03:07:56;;;;;;;23.88;21.40;;;19.30;99.90;;;;;;4972296;28;20061;-75
2022/07/21 03:10:25;;;;;;;24.00;21.58;;;19.30;99.90;;;;;;5005240;28;20049;-75
2022/07/21 03:12:51;;;;;;;24.77;21.97;;;19.30;99.90;;;;;;5004332;28;20049;-75
2022/07/21 03:15:17;;;;;;;23.42;20.98;;;19.30;99.90;;;;;;5021445;28;20042;-75
2022/07/21 03:17:43;;;;;;;25.42;22.83;;;19.20;99.90;;;;;;4978180;28;20064;-75
2022/07/21 03:20:12;;;;;;;25.80;23.38;;;19.20;99.90;;;;;;4978797;28;20041;-75
2022/07/21 03:22:38;;;;;;;24.70;22.38;;;19.20;99.90;;;;;;4992652;28;20064;-75
2022/07/21 03:25:05;;;;;;;26.85;24.05;;;19.20;99.90;;;;;;4997531;28;20124;-75
2022/07/21 03:27:35;;;;;;;26.95;24.17;;;19.30;99.90;;;;;;4998260;28;20083;-75
2022/07/21 03:30:04;;;;;;;25.83;23.15;;;19.30;99.90;;;;;;5006381;28;20076;-75
2022/07/21 03:32:30;;;;;;;23.95;21.42;;;19.30;99.90;;;;;;4997147;28;20512;-75
2022/07/21 03:34:56;;;;;;;24.42;22.10;;;19.20;99.90;;;;;;5005528;28;20103;-75
2022/07/21 03:37:21;;;;;;;23.05;20.95;;;19.30;99.90;;;;;;4977282;28;20053;-75
2022/07/21 03:39:47;;;;;;;22.45;20.25;;;19.30;99.90;;;;;;5003382;28;20448;-76
2022/07/21 03:42:13;;;;;;;26.40;23.77;;;19.30;99.90;;;;;;4975246;28;20215;-75
2022/07/21 03:44:42;;;;;;;28.92;26.05;;;19.30;99.90;;;;;;4974485;28;20512;-75
2022/07/21 03:47:08;;;;;;;24.33;22.03;;;19.30;99.90;;;;;;5008602;28;20127;-75
2022/07/21 03:49:36;;;;;;;27.55;24.85;;;19.30;99.90;;;;;;4962237;28;21196;-75
2022/07/21 03:52:02;;;;;;;30.85;27.65;;;19.30;99.90;;;;;;5006771;28;20049;-76
2022/07/21 03:54:28;;;;;;;25.98;23.60;;;19.30;99.90;;;;;;4988582;28;20943;-75
2022/07/21 03:56:54;;;;;;;27.58;24.48;;;19.30;99.90;;;;;;4980073;28;20041;-75
2022/07/21 03:59:20;;;;;;;27.02;24.35;;;19.30;99.90;;;;;;5005884;28;20412;-75
2022/07/21 04:01:48;;;;;;;30.88;27.80;;;19.30;99.90;;;;;;5004699;28;20140;-75
2022/07/21 04:04:14;;;;;;;29.73;26.90;;;19.20;99.90;;;;;;4978487;28;20049;-75
2022/07/21 04:06:40;;;;;;;34.30;29.90;;;19.30;99.90;;;;;;4975916;28;20046;-75
2022/07/21 04:09:10;;;;;;;35.50;30.52;;;19.20;99.90;;;;;;4976974;28;20719;-75
2022/07/21 04:11:36;;;;;;;30.45;27.23;;;19.30;99.90;;;;;;4982332;28;20049;-75
2022/07/21 04:14:01;;;;;;;32.50;29.50;;;19.20;99.90;;;;;;4975882;28;20668;-75
2022/07/21 04:16:27;;;;;;;35.15;31.52;;;19.20;99.90;;;;;;4991295;28;20176;-75
2022/07/21 04:18:56;;;;;;;38.63;34.95;;;19.20;99.90;;;;;;4993297;28;20115;-75
2022/07/21 04:21:28;;;;;;;106.10;49.72;;;19.20;99.90;;;;;;4977010;28;20053;-75
2022/07/21 04:23:54;;;;;;;37.35;33.65;;;19.20;99.90;;;;;;4978266;28;20050;-74
2022/07/21 04:26:20;;;;;;;39.95;35.95;;;19.30;99.90;;;;;;5025506;28;20033;-74
2022/07/21 04:28:46;;;;;;;46.22;41.63;;;19.20;99.90;;;;;;5005240;28;20080;-74
2022/07/21 04:31:12;;;;;;;62.70;49.03;;;19.30;99.90;;;;;;4975878;28;20136;-74
2022/07/21 04:33:38;;;;;;;44.83;40.60;;;19.30;99.90;;;;;;5008393;28;20061;-74
2022/07/21 04:36:04;;;;;;;53.95;47.95;;;19.30;99.90;;;;;;4991992;28;20808;-75
2022/07/21 04:38:30;;;;;;;44.50;40.25;;;19.30;99.90;;;;;;5008800;28;20057;-75
2022/07/21 04:40:56;;;;;;;47.63;42.85;;;19.30;99.90;;;;;;4979811;28;20334;-75
2022/07/21 04:43:24;;;;;;;43.53;39.58;;;19.40;99.90;;;;;;4981109;28;20045;-75
2022/07/21 04:45:50;;;;;;;46.67;42.22;;;19.40;99.90;;;;;;4976336;28;20508;-75
2022/07/21 04:48:16;;;;;;;50.10;44.97;;;19.40;99.90;;;;;;4991169;28;20136;-75
2022/07/21 04:50:42;;;;;;;46.83;42.35;;;19.40;99.90;;;;;;5007899;28;20077;-74
2022/07/21 04:53:09;;;;;;;45.00;40.80;;;19.40;99.90;;;;;;4979499;28;20048;-74
2022/07/21 04:55:35;;;;;;;46.05;41.72;;;19.40;99.90;;;;;;5008155;28;20073;-75
2022/07/21 04:58:01;;;;;;;51.55;46.58;;;19.40;99.90;;;;;;4991718;28;20128;-74
2022/07/21 05:00:45;;;;;;;50.92;45.80;;;19.40;99.90;;;;;;5023549;28;20526;-74
2022/07/21 05:03:13;;;;;;;59.70;53.15;;;19.40;99.90;;;;;;5006568;28;20041;-75
2022/07/21 05:05:39;;;;;;;51.45;46.22;;;19.40;99.90;;;;;;5006144;28;20053;-75
2022/07/21 05:08:05;;;;;;;48.67;43.92;;;19.50;99.90;;;;;;5004827;28;20133;-76
2022/07/21 05:10:31;;;;;;;49.70;44.90;;;19.50;99.90;;;;;;4975260;28;20042;-75
2022/07/21 05:12:57;;;;;;;51.05;46.00;;;19.50;99.90;;;;;;4980004;28;20055;-75
2022/07/21 05:15:23;;;;;;;58.03;51.78;;;19.50;99.90;;;;;;4975171;28;20075;-75
2022/07/21 05:17:49;;;;;;;46.28;42.03;;;19.50;99.90;;;;;;4975169;28;20053;-75
2022/07/21 05:20:15;;;;;;;44.90;40.72;;;19.50;99.90;;;;;;5007565;28;20051;-76
2022/07/21 05:22:41;;;;;;;46.05;41.70;;;19.50;99.90;;;;;;4978132;28;20049;-75
2022/07/21 05:25:07;;;;;;;53.15;48.15;;;19.50;99.90;;;;;;5007662;28;20647;-76
2022/07/21 05:27:33;;;;;;;54.08;48.75;;;19.50;99.90;;;;;;5009192;28;20061;-75
2022/07/21 05:30:02;;;;;;;51.28;46.35;;;19.50;99.90;;;;;;5022884;28;20053;-75
2022/07/21 05:32:28;;;;;;;50.50;46.07;;;19.60;99.90;;;;;;5007217;28;20137;-74
2022/07/21 05:34:54;;;;;;;52.08;47.08;;;19.60;99.90;;;;;;5006166;28;20041;-75
2022/07/21 05:37:21;;;;;;;55.30;49.88;;;19.60;99.90;;;;;;4993729;28;20500;-75
2022/07/21 05:39:47;;;;;;;54.20;48.92;;;19.60;99.90;;;;;;4977231;28;20352;-75
2022/07/21 05:42:13;;;;;;;55.55;50.10;;;19.60;99.90;;;;;;5005233;28;20053;-75
2022/07/21 05:44:38;;;;;;;52.13;47.22;;;19.60;99.90;;;;;;4973305;28;20132;-75
2022/07/21 05:47:04;;;;;;;58.42;52.60;;;19.60;99.90;;;;;;4977740;28;20045;-75
2022/07/21 05:49:30;;;;;;;52.90;48.03;;;19.60;99.90;;;;;;4978547;28;20476;-75
2022/07/21 05:51:56;;;;;;;51.40;46.53;;;19.60;99.90;;;;;;4974003;28;20034;-74
2022/07/21 05:54:30;;;;;;;52.42;47.45;;;19.60;99.90;;;;;;4987941;28;20598;-75
2022/07/21 05:56:58;;;;;;;57.13;51.17;;;19.60;99.90;;;;;;4987432;28;20097;-75
2022/07/21 05:59:23;;;;;;;52.95;47.85;;;19.60;99.90;;;;;;5004419;28;20111;-75
2022/07/21 06:01:49;;;;;;;48.47;44.08;;;19.70;99.90;;;;;;4972053;28;20057;-76
2022/07/21 06:04:15;;;;;;;44.85;40.78;;;19.70;99.90;;;;;;4975808;28;20057;-75
2022/07/21 06:06:44;;;;;;;45.80;41.70;;;19.80;99.90;;;;;;4984767;28;20057;-75
2022/07/21 06:09:10;;;;;;;50.65;45.47;;;19.90;99.90;;;;;;4987588;28;20758;-75
2022/07/21 06:11:35;;;;;;;41.78;38.10;;;20.00;99.90;;;;;;5004372;28;20060;-75
2022/07/21 06:14:05;;;;;;;41.40;37.70;;;20.00;99.90;;;;;;5005003;28;20045;-75
2022/07/21 06:16:33;;;;;;;41.70;37.95;;;20.00;99.90;;;;;;4976256;28;20163;-75
2022/07/21 06:19:01;;;;;;;40.33;36.70;;;20.00;99.90;;;;;;5004310;28;20100;-74
2022/07/21 06:21:30;;;;;;;45.28;41.38;;;20.00;99.90;;;;;;5001278;28;20571;-74
2022/07/21 06:23:56;;;;;;;43.58;39.72;;;20.00;99.90;;;;;;4969785;28;20056;-75
2022/07/21 06:26:25;;;;;;;41.17;37.55;;;20.00;99.90;;;;;;5003050;28;21223;-74
2022/07/21 06:28:51;;;;;;;40.20;36.55;;;20.00;99.90;;;;;;4971675;28;20052;-74
2022/07/21 06:31:19;;;;;;;39.90;36.30;;;19.90;99.90;;;;;;4972682;28;20037;-74
2022/07/21 06:33:45;;;;;;;40.53;36.92;;;19.90;99.90;;;;;;5002436;28;20049;-75
2022/07/21 06:36:11;;;;;;;40.13;36.53;;;19.90;99.90;;;;;;5002998;28;20037;-74
2022/07/21 06:38:37;;;;;;;41.67;38.08;;;19.80;99.90;;;;;;4971293;28;20052;-75
2022/07/21 06:41:04;;;;;;;41.60;38.05;;;19.80;99.90;;;;;;4989569;28;21478;-75
2022/07/21 06:43:33;;;;;;;41.75;38.05;;;19.80;99.90;;;;;;5002809;28;20053;-74
2022/07/21 06:45:58;;;;;;;43.93;39.97;;;19.70;99.90;;;;;;4990512;28;20824;-75
2022/07/21 06:48:25;;;;;;;49.53;44.92;;;19.70;99.90;;;;;;4976140;28;20050;-74
2022/07/21 06:50:54;;;;;;;44.92;40.97;;;19.70;99.90;;;;;;5000308;28;20057;-74
2022/07/21 06:53:23;;;;;;;47.72;43.33;;;19.70;99.90;;;;;;4989446;28;20049;-78
2022/07/21 06:55:52;;;;;;;43.75;39.80;;;19.70;99.90;;;;;;4992469;28;20443;-75
2022/07/21 06:58:22;;;;;;;48.88;44.47;;;19.80;99.90;;;;;;5007932;28;20492;-74
2022/07/21 07:00:50;;;;;;;47.88;43.47;;;19.80;99.90;;;;;;4979840;28;20885;-75
2022/07/21 07:03:17;;;;;;;44.60;40.67;;;19.80;99.90;;;;;;4982047;28;20057;-75
2022/07/21 07:05:44;;;;;;;45.10;41.20;;;19.80;99.90;;;;;;5004687;28;20714;-75
2022/07/21 07:08:11;;;;;;;44.30;40.33;;;19.80;99.90;;;;;;4992320;28;20114;-75
2022/07/21 07:10:37;;;;;;;47.97;43.60;;;19.80;99.90;;;;;;5005549;28;20037;-76
2022/07/21 07:13:03;;;;;;;51.10;46.40;;;19.80;99.90;;;;;;4991467;28;20049;-76
2022/07/21 07:15:29;;;;;;;47.00;42.72;;;19.90;99.90;;;;;;5004892;28;20436;-76
2022/07/21 07:17:55;;;;;;;47.83;43.72;;;19.90;99.90;;;;;;4996531;28;20142;-76
2022/07/21 07:20:25;;;;;;;47.78;43.65;;;19.80;99.90;;;;;;4979740;28;20077;-77
2022/07/21 07:22:51;;;;;;;49.95;45.42;;;19.80;99.90;;;;;;5008655;28;20240;-77
2022/07/21 07:25:17;;;;;;;47.83;43.55;;;19.80;99.90;;;;;;4981625;28;20041;-77
2022/07/21 07:27:44;;;;;;;48.25;43.72;;;19.90;99.90;;;;;;5009688;28;20725;-75
2022/07/21 07:30:11;;;;;;;48.00;43.70;;;20.00;99.90;;;;;;4977468;28;20045;-75
2022/07/21 07:32:38;;;;;;;48.90;44.45;;;20.00;99.90;;;;;;4981540;28;20174;-77
2022/07/21 07:35:04;;;;;;;44.85;40.80;;;20.10;99.90;;;;;;5009413;28;20049;-77
2022/07/21 07:37:30;;;;;;;45.05;40.85;;;20.10;99.90;;;;;;5008254;28;20079;-77
2022/07/21 07:39:56;;;;;;;46.92;42.63;;;20.20;99.90;;;;;;4991440;28;20041;-78
2022/07/21 07:42:24;;;;;;;44.65;40.72;;;20.20;99.90;;;;;;4993237;28;20505;-77
2022/07/21 07:44:50;;;;;;;44.28;40.08;;;20.30;99.90;;;;;;4975455;28;20057;-75
2022/07/21 07:47:16;;;;;;;44.80;40.72;;;20.30;99.90;;;;;;4982130;28;20320;-75
2022/07/21 07:49:42;;;;;;;45.90;41.60;;;20.30;99.90;;;;;;4991337;28;20449;-74
2022/07/21 07:52:08;;;;;;;44.90;40.60;;;20.40;99.90;;;;;;4980603;28;20731;-77
2022/07/21 07:54:34;;;;;;;44.90;40.80;;;20.40;99.90;;;;;;4963765;28;20095;-77
2022/07/21 07:57:00;;;;;;;46.78;42.38;;;20.40;99.90;;;;;;5006693;28;20100;-77
2022/07/21 07:59:25;;;;;;;47.25;42.95;;;20.40;99.90;;;;;;5007215;28;20037;-77
2022/07/21 08:01:51;;;;;;;48.60;43.90;;;20.40;99.90;;;;;;4992077;28;20053;-77
2022/07/21 08:04:17;;;;;;;46.83;42.50;;;20.50;99.90;;;;;;4973938;28;20589;-77
2022/07/21 08:06:43;;;;;;;47.92;43.47;;;20.50;99.90;;;;;;5007607;28;20323;-77
2022/07/21 08:09:12;;;;;;;48.55;43.90;;;20.50;99.90;;;;;;5006455;28;20077;-74
2022/07/21 08:11:38;;;;;;;46.97;42.45;;;20.60;99.90;;;;;;4980448;28;20049;-74
2022/07/21 08:14:05;;;;;;;48.83;44.42;;;20.70;99.90;;;;;;5008237;28;20485;-73
2022/07/21 08:16:34;;;;;;;45.42;41.08;;;20.80;99.90;;;;;;4980844;28;20057;-74
2022/07/21 08:18:59;;;;;;;45.03;40.72;;;20.90;99.90;;;;;;4981074;28;20555;-74
2022/07/21 08:21:30;;;;;;;48.42;43.78;;;21.00;99.90;;;;;;4992955;28;20511;-79
2022/07/21 08:23:57;;;;;;;44.10;40.20;;;21.20;99.90;;;;;;4968927;28;20103;-79
2022/07/21 08:26:24;;;;;;;45.03;40.95;;;21.20;99.90;;;;;;4974946;28;20061;-79
2022/07/21 08:28:51;;;;;;;43.03;39.08;;;21.20;99.90;;;;;;4989960;28;20057;-80
2022/07/21 08:31:20;;;;;;;44.80;40.88;;;21.20;99.90;;;;;;4992359;28;20389;-79
2022/07/21 08:33:46;;;;;;;42.67;38.87;;;21.20;99.90;;;;;;4991657;28;20118;-79
2022/07/21 08:36:12;;;;;;;42.10;38.40;;;21.20;99.90;;;;;;4978867;28;20189;-78
2022/07/21 08:38:38;;;;;;;40.45;36.75;;;21.20;99.90;;;;;;5008008;28;20057;-79
2022/07/21 08:41:04;;;;;;;39.45;35.95;;;21.30;99.90;;;;;;5004933;28;20511;-76
2022/07/21 08:43:31;;;;;;;37.60;34.20;;;21.40;99.90;;;;;;4997278;28;20056;-79
2022/07/21 08:45:57;;;;;;;38.90;35.28;;;21.60;99.90;;;;;;4976710;28;20107;-80
2022/07/21 08:48:27;;;;;;;37.85;34.45;;;21.70;99.90;;;;;;4990124;28;20477;-79
2022/07/21 08:50:53;;;;;;;35.90;32.78;;;21.80;99.90;;;;;;4993863;28;20056;-80
2022/07/21 08:53:19;;;;;;;37.25;33.95;;;21.90;99.90;;;;;;5006773;28;20253;-79
2022/07/21 08:55:45;;;;;;;34.50;31.40;;;22.10;99.90;;;;;;4979055;28;20401;-79
2022/07/21 08:58:12;;;;;;;38.45;34.88;;;22.10;99.90;;;;;;5004427;28;20045;-78
2022/07/21 09:00:40;;;;;;;36.88;33.55;;;22.20;99.90;;;;;;4987952;28;20142;-79
2022/07/21 09:03:20;;;;;;;36.08;32.88;;;22.20;99.90;;;;;;4973637;28;20061;-79
2022/07/21 09:06:13;;;;;;;38.08;34.50;;;22.20;99.90;;;;;;4978035;28;20048;-80
2022/07/21 09:08:47;;;;;;;36.55;33.08;;;22.20;99.90;;;;;;4978145;28;20076;-79
2022/07/21 09:11:25;;;;;;;34.53;31.35;;;22.20;99.90;;;;;;5006835;28;20049;-79
2022/07/21 09:14:08;;;;;;;36.13;32.83;;;22.20;99.90;;;;;;4979233;28;20053;-79
2022/07/21 09:16:36;;;;;;;35.35;32.05;;;22.30;99.90;;;;;;5007286;28;20509;-80
2022/07/21 09:19:04;;;;;;;33.90;30.90;;;22.20;99.90;;;;;;5006297;28;20516;-79
2022/07/21 09:21:30;;;;;;;33.13;29.90;;;22.30;99.90;;;;;;5007020;28;20045;-80
2022/07/21 09:24:15;;;;;;;39.33;35.80;;;22.40;99.90;;;;;;4977354;28;20079;-80
2022/07/21 09:27:20;;;;;;;30.05;27.35;;;22.60;99.90;;;;;;5006394;28;21528;-80
2022/07/21 09:29:50;;;;;;;29.50;26.90;;;22.70;99.90;;;;;;5006562;28;20053;-80
2022/07/21 09:32:29;;;;;;;33.80;30.33;;;22.90;99.90;;;;;;5006844;28;20191;-79
2022/07/21 09:35:04;;;;;;;38.80;35.30;;;23.00;99.90;;;;;;4978738;28;20143;-80
2022/07/21 09:37:30;;;;;;;39.42;35.83;;;23.00;99.90;;;;;;4990807;28;20387;-80
2022/07/21 09:40:05;;;;;;;43.67;39.58;;;23.00;99.90;;;;;;4995482;28;20060;-80
2022/07/21 09:42:34;;;;;;;38.55;35.13;;;22.90;99.90;;;;;;5007228;28;20050;-81
2022/07/21 09:45:05;;;;;;;44.20;40.00;;;22.90;99.90;;;;;;4993600;28;20045;-80
2022/07/21 09:47:33;;;;;;;41.70;37.85;;;22.90;99.90;;;;;;5005476;28;20156;-79
2022/07/21 09:50:00;;;;;;;38.58;35.05;;;22.90;99.90;;;;;;4988610;28;20103;-80
2022/07/21 09:52:29;;;;;;;41.30;37.50;;;22.80;99.90;;;;;;4979601;28;20042;-80
2022/07/21 09:54:58;;;;;;;45.00;40.45;;;22.70;99.90;;;;;;5005902;28;20591;-80
2022/07/21 09:57:24;;;;;;;42.08;37.70;;;22.70;99.90;;;;;;4997130;28;20046;-80
2022/07/21 09:59:50;;;;;;;44.08;39.88;;;22.70;99.90;;;;;;4999392;28;21578;-80
2022/07/21 10:02:21;;;;;;;44.72;40.50;;;22.70;99.90;;;;;;4982712;28;20049;-80
2022/07/21 10:05:03;;;;;;;44.70;40.38;;;22.70;99.90;;;;;;4979936;28;20499;-81
2022/07/21 10:07:30;;;;;;;45.55;41.05;;;22.60;99.90;;;;;;5006625;28;20379;-80
2022/07/21 10:09:57;;;;;;;46.08;41.67;;;22.60;99.90;;;;;;5006946;28;20073;-80
2022/07/21 10:12:27;;;;;;;43.53;39.13;;;22.50;99.90;;;;;;5004763;28;20056;-80
2022/07/21 10:14:56;;;;;;;47.58;42.75;;;22.50;99.90;;;;;;4992894;28;20516;-80
2022/07/21 10:17:24;;;;;;;50.57;45.40;;;22.40;99.90;;;;;;5005077;28;20527;-79
2022/07/21 10:20:13;;;;;;;52.28;47.10;;;22.20;99.90;;;;;;5006234;28;20443;-80
2022/07/21 10:23:05;;;;;;;53.28;48.00;;;22.10;99.90;;;;;;5003864;28;20707;-80
2022/07/21 10:25:35;;;;;;;49.97;44.85;;;21.90;99.90;;;;;;4987648;28;20316;-80
2022/07/21 10:28:23;;;;;;;51.60;46.33;;;21.80;99.90;;;;;;5003184;28;20055;-79
2022/07/21 10:30:59;;;;;;;53.80;48.40;;;21.80;99.90;;;;;;4976289;28;20057;-79
2022/07/21 10:33:46;;;;;;;53.75;48.30;;;21.70;99.90;;;;;;5006049;28;20088;-79
2022/07/21 10:36:33;;;;;;;57.05;51.08;;;21.60;99.90;;;;;;5004159;28;20804;-79
2022/07/21 10:39:17;;;;;;;52.17;46.95;;;21.60;99.90;;;;;;4976607;28;20600;-79
2022/07/21 10:41:46;;;;;;;52.83;47.25;;;21.50;99.90;;;;;;5005727;28;20061;-79
2022/07/21 10:44:27;;;;;;;52.97;47.53;;;21.40;99.90;;;;;;5003642;28;20110;-79
2022/07/21 10:47:09;;;;;;;53.70;48.08;;;21.30;99.90;;;;;;5004273;28;20112;-79
2022/07/21 10:49:59;;;;;;;51.90;46.60;;;21.30;99.90;;;;;;5003516;28;21386;-79
2022/07/21 10:52:41;;;;;;;45.45;40.88;;;21.40;99.90;;;;;;4999051;28;20484;-75
2022/07/21 10:55:10;;;;;;;48.50;43.78;;;21.40;99.90;;;;;;5003630;28;20328;-78
2022/07/21 10:57:36;;;;;;;60.47;50.58;;;21.40;99.90;;;;;;5004732;28;20080;-79
2022/07/21 11:00:24;;;;;;;54.13;48.67;;;21.50;99.90;;;;;;4975644;28;20050;-79
2022/07/21 11:03:02;;;;;;;53.28;48.00;;;21.60;99.90;;;;;;5020324;28;20056;-79
2022/07/21 11:05:31;;;;;;;49.33;44.55;;;21.60;99.90;;;;;;5005949;28;21528;-79
2022/07/21 11:08:15;;;;;;;52.43;47.43;;;21.60;99.90;;;;;;4976641;28;20136;-79
2022/07/21 11:10:50;;;;;;;43.33;39.17;;;21.70;99.90;;;;;;5006031;28;20487;-79
2022/07/21 11:13:19;;;;;;;46.17;41.67;;;21.70;99.90;;;;;;4975300;28;20485;-79
2022/07/21 11:16:00;;;;;;;48.13;43.63;;;21.80;99.90;;;;;;4973408;28;20041;-79
2022/07/21 11:18:29;;;;;;;47.22;42.50;;;21.90;99.90;;;;;;5014762;28;20045;-79
2022/07/21 11:21:17;;;;;;;49.40;44.70;;;22.00;99.90;;;;;;5005497;28;20499;-79
2022/07/21 11:23:50;;;;;;;43.72;39.53;;;22.20;99.90;;;;;;5011617;28;20110;-80
2022/07/21 11:26:19;;;;;;;42.28;38.15;;;22.40;99.90;;;;;;5015908;28;20075;-79
2022/07/21 11:28:46;;;;;;;40.55;36.60;;;22.60;99.90;;;;;;5021560;28;20057;-80
2022/07/21 11:31:18;;;;;;;39.72;35.72;;;22.70;99.90;;;;;;5021133;28;20064;-79
2022/07/21 11:33:46;;;;;;;40.83;36.92;;;22.80;99.90;;;;;;5021667;28;20061;-79
2022/07/21 11:36:30;;;;;;;41.47;37.35;;;22.80;99.90;;;;;;5018117;28;20492;-74
2022/07/21 11:38:58;;;;;;;44.13;39.85;;;22.80;99.90;;;;;;5015582;28;20402;-74
2022/07/21 11:41:24;;;;;;;41.47;37.50;;;22.70;99.90;;;;;;5002411;28;20110;-74
2022/07/21 11:43:50;;;;;;;41.70;37.60;;;22.60;99.90;;;;;;5000318;28;20515;-74
2022/07/21 11:46:16;;;;;;;41.28;37.33;;;22.50;99.90;;;;;;5018662;28;20038;-74
2022/07/21 11:48:42;;;;;;;42.60;38.53;;;22.50;99.90;;;;;;5014713;28;20081;-75
2022/07/21 11:51:08;;;;;;;41.20;37.30;;;22.40;99.90;;;;;;5003744;28;20108;-74
2022/07/21 11:53:34;;;;;;;40.53;36.72;;;22.40;99.90;;;;;;5013943;28;20045;-73
2022/07/21 11:56:00;;;;;;;39.80;36.00;;;22.30;99.90;;;;;;5017125;28;20081;-74
2022/07/21 11:58:26;;;;;;;40.55;36.75;;;22.30;99.90;;;;;;5021390;28;20544;-74
2022/07/21 12:01:08;;;;;;;40.22;36.53;;;22.30;99.90;;;;;;5011658;28;20103;-75
2022/07/21 12:03:34;;;;;;;41.00;37.03;;;22.30;99.90;;;;;;5002333;28;20081;-74
2022/07/21 12:06:01;;;;;;;43.60;39.63;;;22.40;99.90;;;;;;5016891;28;20041;-75
2022/07/21 12:08:30;;;;;;;40.95;37.10;;;22.70;99.90;;;;;;4996499;28;20547;-74
2022/07/21 12:11:07;;;;;;;41.75;37.72;;;23.00;99.90;;;;;;5014271;28;20053;-75
2022/07/21 12:13:53;;;;;;;42.03;37.92;;;23.40;99.90;;;;;;5020780;28;20042;-75
2022/07/21 12:16:25;;;;;;;39.58;35.83;;;23.70;99.90;;;;;;5012250;28;20076;-78
2022/07/21 12:19:11;;;;;;;41.55;37.40;;;23.80;99.90;;;;;;5016741;28;20532;-80
2022/07/21 12:21:50;;;;;;;40.33;36.45;;;23.70;99.90;;;;;;5009542;28;20099;-79
2022/07/21 12:24:17;;;;;;;;;;;23.60;99.90;;;;;;5020443;28;20516;-79
2022/07/21 12:26:43;;;;;;;35.17;31.83;;;23.30;99.90;;;;;;5015499;28;19925;-79
2022/07/21 12:29:27;;;;;;;36.35;32.78;;;23.00;99.90;;;;;;4992558;28;20045;-79
2022/07/21 12:31:56;;;;;;;39.08;35.40;;;22.90;99.90;;;;;;5015829;28;20049;-79
2022/07/21 12:34:26;;;;;;;38.85;34.85;;;22.80;99.90;;;;;;5017371;28;20042;-79
2022/07/21 12:36:51;;;;;;;37.83;34.33;;;22.60;99.90;;;;;;5040478;28;20061;-80
2022/07/21 12:42:09;;;;;;;40.10;36.40;;;22.20;99.90;;;;;;5019259;28;20617;-80